KMGR/MGR METAR and TAF weather

Enter ICAO airport designator
Station Type Date Time Source
KMGR METAR 2019/08/24 22:35 UTC NOAA

KMGR 242235Z AUTO 00000KT 10SM TS CLR 33/21 A2993 RMK AO2 LTG DSNT ALQS


Station Type Date Time Source
KMGR Decoded METAR 2019/08/24 22:35 UTC NOAA

Station name not available
Aug 24, 2019 - 06:35 PM EDT / 2019.08.24 2235 UTC
Wind: Calm:0
Visibility: 10 mile(s):0
Sky conditions: clear
Weather: thunder; Lightning observed
Temperature: 91 F (33 C)
Heat index: 96.1 F (35.6 C):1
Dew Point: 69 F (21 C)
Relative Humidity: 49%
Pressure (altimeter): 29.93 in. Hg (1013 hPa)
ob: KMGR 242235Z AUTO 00000KT 10SM TS CLR 33/21 A2993 RMK AO2 LTG DSNT ALQS
cycle: 22

Station Type Date Time Source
KMGR TAF UTC NOAA

Error!

Example: see airport list